Santo Domingo, Dominican Republic
Current Conditions -  °F | °C
As of 2:00 PM on Friday 21 Nov 2014 (Local Time) from MDSD Reporting Station
Scattered Clouds Scattered Clouds  
Wind Chill: 28°   Ceiling: Unl
Heat Index: 33°   Visibility: 6mi
Dew Point: 25°   Wind: 0mph
Humidity: 84%   Direction: NA
Pressure: 29.94"   Gusts: NA
Location:  18.48°N, 69.91°W
Report Text: MDSD 211800Z 00000KT 9999 FEW018CB SCT020 28/25 Q1014 CB/SW
Loading
Personal Weather Stations






























Interactive Weather Map New forecast layout! Learn more

10-Day Weather Forecast

Advertisements
Track Severe Weather on mobile